Time;durP1;ratioP1;P1;durP2;ratioP2;P2;SDS_P1;SDS_P2;PMS_P1;PMS_P2;Temp;Humidity;BMP_temperature;BMP_pressure;BME280_temperature;BME280_humidity;BME280_pressure;Samples;Min_cycle;Max_cycle;Signal;HPM_P1;HPM_P2
2021/01/14 00:00:08;;;;;;;1.10;1.00;;;3.20;99.90;;;;;;4952231;28;20472;-68
2021/01/14 00:02:34;;;;;;;0.73;0.70;;;3.20;99.90;;;;;;4952671;29;20443;-69
2021/01/14 00:05:00;;;;;;;3.83;2.50;;;3.20;99.90;;;;;;4952300;29;20519;-69
2021/01/14 00:07:26;;;;;;;2.73;1.30;;;3.20;99.90;;;;;;4952250;28;20453;-69
2021/01/14 00:09:51;;;;;;;1.00;0.90;;;3.10;99.90;;;;;;4952298;29;20502;-69
2021/01/14 00:12:17;;;;;;;1.57;1.20;;;3.00;99.90;;;;;;4952067;28;20557;-69
2021/01/14 00:14:42;;;;;;;1.10;1.00;;;3.00;99.90;;;;;;4952418;29;20173;-68
2021/01/14 00:17:08;;;;;;;1.40;1.30;;;3.00;99.90;;;;;;4952233;29;20682;-69
2021/01/14 00:19:33;;;;;;;1.70;1.20;;;2.90;99.90;;;;;;4951803;29;20208;-70
2021/01/14 00:21:59;;;;;;;1.33;1.20;;;2.90;99.90;;;;;;4952091;29;20231;-69
2021/01/14 00:24:25;;;;;;;1.47;0.83;;;2.90;99.90;;;;;;4952325;29;20188;-68
2021/01/14 00:26:50;;;;;;;1.13;1.03;;;2.80;99.90;;;;;;4952551;28;20235;-69
2021/01/14 00:29:16;;;;;;;1.43;1.00;;;2.80;99.90;;;;;;4951822;29;20196;-69
2021/01/14 00:31:41;;;;;;;1.40;1.30;;;2.80;99.90;;;;;;4952462;29;20581;-68
2021/01/14 00:34:08;;;;;;;1.80;1.10;;;2.80;99.90;;;;;;4950235;29;20212;-68
2021/01/14 00:39:23;;;;;;;1.30;1.00;;;2.80;99.90;;;;;;4951894;29;20526;-68
2021/01/14 00:41:49;;;;;;;1.50;1.40;;;2.80;99.90;;;;;;4952326;29;20440;-69
2021/01/14 00:44:15;;;;;;;1.93;1.50;;;2.90;99.90;;;;;;4951430;29;20451;-69
2021/01/14 00:46:41;;;;;;;1.70;1.60;;;3.00;99.90;;;;;;4952163;29;20295;-69
2021/01/14 00:49:06;;;;;;;2.20;1.40;;;3.00;99.90;;;;;;4951606;29;20199;-69
2021/01/14 00:51:36;;;;;;;1.70;1.50;;;3.00;99.90;;;;;;4951905;28;20315;-69
2021/01/14 00:54:03;;;;;;;1.93;1.80;;;3.00;99.90;;;;;;4951865;29;20436;-69
2021/01/14 00:56:35;;;;;;;1.50;1.40;;;3.00;99.90;;;;;;4952012;29;20523;-68
2021/01/14 00:59:02;;;;;;;2.10;1.90;;;3.00;99.90;;;;;;4951523;28;20989;-69
2021/01/14 01:01:28;;;;;;;2.37;2.10;;;3.00;99.90;;;;;;4951816;29;20466;-69
2021/01/14 01:03:54;;;;;;;1.83;1.63;;;3.10;99.90;;;;;;4951342;29;21086;-69
2021/01/14 01:06:21;;;;;;;1.70;1.60;;;3.10;99.90;;;;;;4951886;28;20470;-68
2021/01/14 01:08:47;;;;;;;1.60;1.50;;;3.20;99.90;;;;;;4954922;29;20443;-69
2021/01/14 01:11:13;;;;;;;1.60;1.50;;;3.20;99.90;;;;;;4955906;29;20451;-69
2021/01/14 01:13:39;;;;;;;2.80;2.33;;;3.20;99.90;;;;;;4955604;29;20441;-70
2021/01/14 01:16:05;;;;;;;2.77;2.57;;;3.20;99.90;;;;;;4955211;28;20181;-69
2021/01/14 01:18:30;;;;;;;3.00;2.70;;;3.20;99.90;;;;;;4955077;29;20185;-69
2021/01/14 01:20:56;;;;;;;3.03;2.60;;;3.30;99.90;;;;;;4955922;28;20260;-69
2021/01/14 01:23:21;;;;;;;2.63;2.43;;;3.20;99.90;;;;;;4955722;29;20525;-69
2021/01/14 01:25:47;;;;;;;3.13;2.83;;;3.20;99.90;;;;;;4955861;29;20195;-69
2021/01/14 01:28:12;;;;;;;2.93;2.30;;;3.20;99.90;;;;;;4955063;28;20628;-69
2021/01/14 01:30:38;;;;;;;3.30;3.00;;;3.20;99.90;;;;;;4955199;28;20276;-68
2021/01/14 01:33:05;;;;;;;3.20;2.90;;;3.20;99.90;;;;;;4955447;29;20228;-68
2021/01/14 01:35:31;;;;;;;4.50;3.07;;;3.20;99.90;;;;;;4955198;29;20714;-70
2021/01/14 01:37:56;;;;;;;3.47;3.27;;;3.20;99.90;;;;;;4954829;28;20472;-68
2021/01/14 01:40:22;;;;;;;4.00;3.60;;;3.20;99.90;;;;;;4955159;29;20237;-69
2021/01/14 01:42:55;;;;;;;3.63;3.33;;;3.20;99.90;;;;;;4954679;29;20224;-69
2021/01/14 01:45:20;;;;;;;5.97;5.23;;;3.20;99.90;;;;;;4954514;29;20261;-69
2021/01/14 01:47:46;;;;;;;4.30;3.90;;;3.20;99.90;;;;;;4954655;29;20543;-69
2021/01/14 01:50:12;;;;;;;3.97;3.40;;;3.20;99.90;;;;;;4954410;28;20193;-69
2021/01/14 01:52:39;;;;;;;4.67;3.97;;;3.20;99.90;;;;;;4954772;29;20532;-69
2021/01/14 01:55:05;;;;;;;4.67;3.83;;;3.20;99.90;;;;;;4954924;28;20507;-69
2021/01/14 01:57:32;;;;;;;3.83;3.40;;;3.20;99.90;;;;;;4954336;28;20522;-69
2021/01/14 01:59:58;;;;;;;3.63;3.33;;;3.20;99.90;;;;;;4954892;29;20460;-69
2021/01/14 02:02:27;;;;;;;3.87;3.57;;;3.10;99.90;;;;;;4954488;28;20448;-68
2021/01/14 02:04:53;;;;;;;3.17;2.97;;;3.20;99.90;;;;;;4954498;28;20524;-68
2021/01/14 02:07:30;;;;;;;3.47;3.17;;;3.10;99.90;;;;;;4954487;28;20463;-69
2021/01/14 02:09:56;;;;;;;3.97;3.60;;;3.10;99.90;;;;;;4954225;28;20452;-69
2021/01/14 02:12:30;;;;;;;3.10;2.80;;;3.10;99.90;;;;;;4953295;29;20463;-69
2021/01/14 02:14:57;;;;;;;2.93;2.73;;;3.20;99.90;;;;;;4954194;29;20190;-69
2021/01/14 02:17:25;;;;;;;3.77;3.40;;;3.10;99.90;;;;;;4954163;28;20463;-69
2021/01/14 02:19:53;;;;;;;2.83;2.63;;;3.10;99.90;;;;;;4954025;29;20502;-69
2021/01/14 02:22:24;;;;;;;4.50;3.30;;;3.00;99.90;;;;;;4954053;28;20449;-68
2021/01/14 02:25:06;;;;;;;4.57;3.50;;;3.00;99.90;;;;;;4954379;28;20515;-69
2021/01/14 02:27:35;;;;;;;4.03;3.30;;;3.00;99.90;;;;;;4953843;29;21154;-69
2021/01/14 02:30:03;;;;;;;4.00;3.60;;;3.10;99.90;;;;;;4954177;29;20432;-69
2021/01/14 02:32:28;;;;;;;3.93;3.47;;;3.10;99.90;;;;;;4953357;29;20516;-69
2021/01/14 02:34:54;;;;;;;4.07;3.67;;;3.00;99.90;;;;;;4954695;29;21025;-68
2021/01/14 02:37:20;;;;;;;3.60;3.30;;;3.00;99.90;;;;;;4953676;28;20585;-70
2021/01/14 02:39:45;;;;;;;3.77;3.00;;;3.00;99.90;;;;;;4954014;29;20231;-70
2021/01/14 02:42:11;;;;;;;4.33;3.33;;;3.00;99.90;;;;;;4953753;29;20200;-70
2021/01/14 02:44:36;;;;;;;4.17;3.77;;;3.00;99.90;;;;;;4953121;29;20181;-68
2021/01/14 02:47:04;;;;;;;4.07;3.60;;;3.10;99.90;;;;;;4953636;28;20679;-70
2021/01/14 02:49:38;;;;;;;3.73;3.43;;;3.10;99.90;;;;;;4953634;29;20205;-70
2021/01/14 02:52:05;;;;;;;5.10;3.60;;;3.00;99.90;;;;;;4953976;29;20448;-70
2021/01/14 02:54:31;;;;;;;4.30;3.80;;;3.00;99.90;;;;;;4954071;29;20846;-69
2021/01/14 02:56:57;;;;;;;3.13;2.83;;;3.00;99.90;;;;;;4954174;28;20472;-69
2021/01/14 02:59:22;;;;;;;3.73;3.33;;;2.90;99.90;;;;;;4953448;28;20501;-70
2021/01/14 03:01:48;;;;;;;3.80;3.23;;;2.90;99.90;;;;;;4953892;29;20436;-70
2021/01/14 03:04:14;;;;;;;4.63;4.10;;;3.00;99.90;;;;;;4952957;29;20188;-70
2021/01/14 03:06:39;;;;;;;5.80;3.40;;;2.90;99.90;;;;;;4953488;28;20601;-69
2021/01/14 03:09:05;;;;;;;4.30;3.37;;;3.00;99.90;;;;;;4953604;29;20181;-68
2021/01/14 03:11:33;;;;;;;4.00;3.33;;;3.00;99.90;;;;;;4952055;29;20678;-70
2021/01/14 03:13:58;;;;;;;3.73;3.43;;;3.00;99.90;;;;;;4953612;29;20553;-70
2021/01/14 03:16:25;;;;;;;4.90;4.13;;;3.00;99.90;;;;;;4952656;28;20460;-70
2021/01/14 03:18:51;;;;;;;3.40;3.10;;;3.00;99.90;;;;;;4953305;28;20216;-69
2021/01/14 03:21:19;;;;;;;3.80;3.50;;;3.00;99.90;;;;;;4953305;28;20441;-69
2021/01/14 03:23:45;;;;;;;4.10;3.70;;;3.00;99.90;;;;;;4952059;29;20442;-69
2021/01/14 03:26:14;;;;;;;4.93;3.67;;;3.10;99.90;;;;;;4951949;29;21149;-68
2021/01/14 03:28:40;;;;;;;4.23;3.43;;;3.00;99.90;;;;;;4952724;29;20179;-69
2021/01/14 03:31:06;;;;;;;4.37;2.93;;;3.10;99.90;;;;;;4952624;28;20877;-69
2021/01/14 03:33:32;;;;;;;5.90;3.93;;;3.10;99.90;;;;;;4952891;29;20195;-69
2021/01/14 03:35:58;;;;;;;5.30;3.83;;;3.00;99.90;;;;;;4953005;28;20195;-68
2021/01/14 03:38:24;;;;;;;4.70;3.50;;;3.10;99.90;;;;;;4952527;28;20169;-70
2021/01/14 03:40:50;;;;;;;5.53;2.63;;;3.00;99.90;;;;;;4953365;29;20519;-69
2021/01/14 03:43:16;;;;;;;7.27;3.83;;;3.00;99.90;;;;;;4953319;29;20472;-69
2021/01/14 03:45:42;;;;;;;5.93;3.43;;;2.90;99.90;;;;;;4953725;29;20184;-70
2021/01/14 03:48:11;;;;;;;7.50;4.20;;;2.90;99.90;;;;;;4953411;29;20197;-70
2021/01/14 03:50:36;;;;;;;5.53;4.27;;;2.90;99.90;;;;;;4953360;29;20483;-69
2021/01/14 03:53:01;;;;;;;4.60;3.57;;;2.80;99.90;;;;;;4953462;29;20468;-68
2021/01/14 03:55:27;;;;;;;7.50;4.37;;;2.80;99.90;;;;;;4953299;29;20177;-69
2021/01/14 03:57:53;;;;;;;12.13;3.93;;;2.80;99.90;;;;;;4952745;28;20283;-69
2021/01/14 04:00:19;;;;;;;6.00;4.00;;;2.80;99.90;;;;;;4953110;29;20930;-69
2021/01/14 04:02:44;;;;;;;4.43;3.67;;;2.80;99.90;;;;;;4952740;28;20181;-69
2021/01/14 04:05:12;;;;;;;5.40;4.00;;;2.80;99.90;;;;;;4952783;29;20436;-69
2021/01/14 04:07:37;;;;;;;4.47;3.93;;;2.80;99.90;;;;;;4952224;29;20201;-68
2021/01/14 04:10:04;;;;;;;3.90;3.50;;;2.80;99.90;;;;;;4952437;29;20498;-70
2021/01/14 04:12:30;;;;;;;4.10;3.37;;;2.80;99.90;;;;;;4952538;29;20227;-69
2021/01/14 04:14:58;;;;;;;5.73;3.80;;;2.80;99.90;;;;;;4951423;29;20880;-69
2021/01/14 04:17:24;;;;;;;3.30;3.00;;;2.80;99.90;;;;;;4952636;28;20201;-69
2021/01/14 04:19:50;;;;;;;6.43;4.23;;;2.80;99.90;;;;;;4952268;28;20464;-69
2021/01/14 04:22:15;;;;;;;3.90;3.50;;;2.70;99.90;;;;;;4952125;29;20498;-70
2021/01/14 04:24:41;;;;;;;6.30;3.70;;;2.70;99.90;;;;;;4952856;29;20211;-69
2021/01/14 04:27:07;;;;;;;6.47;4.30;;;2.70;99.90;;;;;;4953148;28;20212;-68
2021/01/14 04:29:32;;;;;;;7.03;4.30;;;2.70;99.90;;;;;;4952829;29;20594;-68
2021/01/14 04:31:58;;;;;;;11.03;4.90;;;2.80;99.90;;;;;;4953530;29;20181;-68
2021/01/14 04:34:24;;;;;;;4.43;4.03;;;2.70;99.90;;;;;;4952658;29;20223;-69
2021/01/14 04:37:00;;;;;;;8.33;3.60;;;2.70;99.90;;;;;;4952789;28;21014;-69
2021/01/14 04:39:26;;;;;;;6.03;4.10;;;2.80;99.90;;;;;;4952637;29;20580;-68
2021/01/14 04:41:57;;;;;;;6.60;4.17;;;2.80;99.90;;;;;;4956553;28;20440;-69
2021/01/14 04:44:26;;;;;;;5.80;4.70;;;2.80;99.90;;;;;;4958568;29;20172;-69
2021/01/14 04:47:02;;;;;;;4.67;4.17;;;2.80;99.90;;;;;;4958751;28;20456;-70
2021/01/14 04:49:27;;;;;;;5.07;4.20;;;2.80;99.90;;;;;;4958138;28;20435;-69
2021/01/14 04:51:59;;;;;;;5.10;4.60;;;2.70;99.90;;;;;;4958983;28;20514;-70
2021/01/14 04:54:34;;;;;;;8.17;4.50;;;2.70;99.90;;;;;;4958613;28;20184;-71
2021/01/14 04:57:17;;;;;;;8.83;5.37;;;2.70;99.90;;;;;;4958746;28;20546;-69
2021/01/14 04:59:43;;;;;;;6.07;4.43;;;2.70;99.90;;;;;;4958038;28;20526;-69
2021/01/14 05:02:16;;;;;;;5.33;4.57;;;2.70;99.90;;;;;;4959070;29;20437;-69
2021/01/14 05:04:45;;;;;;;6.90;5.73;;;2.70;99.90;;;;;;4958833;29;20548;-69
2021/01/14 05:07:14;;;;;;;8.20;6.37;;;2.60;99.90;;;;;;4958547;28;20456;-70
2021/01/14 05:09:41;;;;;;;8.90;5.90;;;2.60;99.90;;;;;;4958188;29;20502;-70
2021/01/14 05:12:09;;;;;;;8.20;5.40;;;2.50;99.90;;;;;;4958823;29;20444;-70
2021/01/14 05:14:37;;;;;;;9.67;6.13;;;2.50;99.90;;;;;;4958783;28;20854;-70
2021/01/14 05:17:02;;;;;;;6.83;5.20;;;2.50;99.90;;;;;;4959093;28;20456;-69
2021/01/14 05:19:28;;;;;;;6.97;5.70;;;2.50;99.90;;;;;;4958201;29;20471;-69
2021/01/14 05:21:56;;;;;;;6.13;4.80;;;2.40;99.90;;;;;;4943151;29;20193;-69
2021/01/14 05:24:21;;;;;;;7.33;6.40;;;2.40;99.90;;;;;;4958540;29;20179;-70
2021/01/14 05:26:47;;;;;;;7.27;5.50;;;2.40;99.90;;;;;;4958630;29;20447;-70
2021/01/14 05:29:12;;;;;;;6.77;5.27;;;2.40;99.90;;;;;;4958443;28;20673;-71
2021/01/14 05:31:38;;;;;;;7.47;4.77;;;2.50;99.90;;;;;;4957966;28;20180;-70
2021/01/14 05:34:03;;;;;;;6.23;5.47;;;2.50;99.90;;;;;;4958002;29;20595;-69
2021/01/14 05:36:53;;;;;;;5.90;4.70;;;2.50;99.90;;;;;;4957692;28;20205;-68
2021/01/14 05:39:20;;;;;;;5.90;5.03;;;2.50;99.90;;;;;;4957654;28;20528;-70
2021/01/14 05:41:48;;;;;;;6.90;5.87;;;2.50;99.90;;;;;;4958125;28;20444;-70
2021/01/14 05:44:13;;;;;;;5.43;4.87;;;2.50;99.90;;;;;;4958189;28;20432;-70
2021/01/14 05:46:39;;;;;;;14.83;5.30;;;2.40;99.90;;;;;;4957748;28;21048;-69
2021/01/14 05:49:09;;;;;;;5.67;4.97;;;2.50;99.90;;;;;;4957856;28;20682;-69
2021/01/14 05:51:35;;;;;;;6.50;5.03;;;2.60;99.90;;;;;;4953317;28;20189;-69
2021/01/14 05:54:13;;;;;;;6.67;5.20;;;2.60;99.90;;;;;;4953271;28;20483;-70
2021/01/14 05:56:43;;;;;;;5.77;4.87;;;2.60;99.90;;;;;;4955142;28;20484;-69
2021/01/14 05:59:11;;;;;;;7.13;5.93;;;2.60;99.90;;;;;;4954923;28;20460;-69
2021/01/14 06:01:54;;;;;;;14.43;6.43;;;2.60;99.90;;;;;;4955047;29;20436;-69
2021/01/14 06:04:21;;;;;;;7.37;5.43;;;2.60;99.90;;;;;;4955153;28;20961;-71
2021/01/14 06:06:49;;;;;;;7.67;5.70;;;2.60;99.90;;;;;;4954764;28;20453;-70
2021/01/14 06:09:17;;;;;;;8.63;5.60;;;2.60;99.90;;;;;;4954670;28;20461;-69
2021/01/14 06:11:44;;;;;;;10.63;6.37;;;2.60;99.90;;;;;;4954647;29;20912;-69
2021/01/14 06:14:35;;;;;;;5.80;4.90;;;2.70;99.90;;;;;;4954527;29;20444;-70
2021/01/14 06:17:03;;;;;;;8.00;5.80;;;2.70;99.90;;;;;;4955246;28;20488;-70
2021/01/14 06:19:29;;;;;;;6.77;6.07;;;2.70;99.90;;;;;;4955103;29;20460;-69
2021/01/14 06:21:56;;;;;;;6.57;5.83;;;2.70;99.90;;;;;;4955120;28;20974;-68
2021/01/14 06:24:37;;;;;;;7.67;6.87;;;2.60;99.90;;;;;;4954464;29;20491;-68
2021/01/14 06:27:05;;;;;;;15.30;6.33;;;2.60;99.90;;;;;;4954487;29;20879;-69
2021/01/14 06:29:38;;;;;;;9.37;6.43;;;2.50;99.90;;;;;;4954413;29;20433;-68
2021/01/14 06:32:12;;;;;;;8.10;6.40;;;2.50;99.90;;;;;;4954676;29;20440;-69
2021/01/14 06:34:41;;;;;;;8.40;6.13;;;2.50;99.90;;;;;;4954943;29;21013;-69
2021/01/14 06:37:11;;;;;;;7.57;6.73;;;2.50;99.90;;;;;;4954024;28;20986;-70
2021/01/14 06:39:42;;;;;;;9.87;5.87;;;2.50;99.90;;;;;;4953832;29;21016;-69
2021/01/14 06:42:31;;;;;;;8.50;6.43;;;2.50;99.90;;;;;;4953766;28;20500;-70
2021/01/14 06:45:00;;;;;;;11.90;7.80;;;2.50;99.90;;;;;;4954026;29;20813;-70
2021/01/14 06:47:41;;;;;;;13.50;7.00;;;2.50;99.90;;;;;;4947787;29;20574;-69
2021/01/14 06:50:17;;;;;;;8.57;6.67;;;2.50;99.90;;;;;;4953429;29;20792;-69
2021/01/14 06:53:02;;;;;;;8.20;6.53;;;2.50;99.90;;;;;;4951208;28;20439;-70
2021/01/14 06:55:36;;;;;;;8.23;7.33;;;2.50;99.90;;;;;;4954079;28;20880;-70
2021/01/14 06:58:06;;;;;;;8.80;6.97;;;2.60;99.90;;;;;;4940426;29;20460;-69
2021/01/14 07:00:42;;;;;;;10.87;7.27;;;2.50;99.90;;;;;;4948345;29;20467;-70
2021/01/14 07:03:18;;;;;;;13.13;7.00;;;2.50;99.90;;;;;;4954010;28;20436;-70
2021/01/14 07:05:52;;;;;;;7.53;6.73;;;2.50;99.90;;;;;;4951101;29;20941;-69
2021/01/14 07:08:37;;;;;;;13.70;7.90;;;2.50;99.90;;;;;;4952029;29;20462;-69
2021/01/14 07:11:05;;;;;;;14.90;6.87;;;2.60;99.90;;;;;;4949470;29;20436;-69
2021/01/14 07:13:41;;;;;;;7.50;6.37;;;2.60;99.90;;;;;;4953674;29;20439;-71
2021/01/14 07:16:10;;;;;;;8.67;6.80;;;2.60;99.90;;;;;;4943807;29;20444;-69
2021/01/14 07:18:37;;;;;;;7.30;6.60;;;2.70;99.90;;;;;;4941779;29;20445;-70
2021/01/14 07:21:18;;;;;;;8.13;6.70;;;2.60;99.90;;;;;;4950653;29;20458;-70
2021/01/14 07:23:53;;;;;;;8.37;6.40;;;2.60;99.90;;;;;;4953054;29;20443;-69
2021/01/14 07:26:21;;;;;;;7.87;6.47;;;2.50;99.90;;;;;;4952203;29;20483;-69
2021/01/14 07:28:47;;;;;;;10.80;7.33;;;2.50;99.90;;;;;;4946811;29;20499;-70
2021/01/14 07:31:21;;;;;;;8.33;7.53;;;2.50;99.90;;;;;;4953425;29;20444;-70
2021/01/14 07:33:47;;;;;;;10.30;8.27;;;2.40;99.90;;;;;;4947102;29;20200;-70
2021/01/14 07:36:17;;;;;;;9.40;7.50;;;2.50;99.90;;;;;;4951772;28;20515;-70
2021/01/14 07:38:48;;;;;;;11.43;7.70;;;2.40;99.90;;;;;;4955500;28;20439;-70
2021/01/14 07:41:14;;;;;;;11.63;8.93;;;2.40;99.90;;;;;;4953037;28;21096;-70
2021/01/14 07:43:45;;;;;;;11.40;7.60;;;2.50;99.90;;;;;;4948547;29;20437;-70
2021/01/14 07:46:22;;;;;;;11.93;7.70;;;2.60;99.90;;;;;;4950125;28;20499;-66
2021/01/14 07:48:49;;;;;;;13.80;7.30;;;2.60;99.90;;;;;;4954490;29;20993;-68
2021/01/14 07:51:15;;;;;;;11.03;6.37;;;2.70;99.90;;;;;;4952413;29;20491;-67
2021/01/14 07:53:41;;;;;;;8.33;7.40;;;2.70;99.90;;;;;;4952489;28;20849;-68
2021/01/14 07:56:24;;;;;;;11.83;6.33;;;2.70;99.90;;;;;;4952939;28;20424;-66
2021/01/14 07:58:53;;;;;;;13.60;9.80;;;2.60;99.90;;;;;;4949347;28;20174;-69
2021/01/14 08:01:19;;;;;;;12.00;8.83;;;2.60;99.90;;;;;;4942357;29;20440;-66
2021/01/14 08:03:45;;;;;;;12.67;7.47;;;2.60;99.90;;;;;;4943629;28;20444;-68
2021/01/14 08:06:34;;;;;;;8.00;6.60;;;2.60;99.90;;;;;;4942436;28;20181;-69
2021/01/14 08:09:05;;;;;;;9.40;6.27;;;2.50;99.90;;;;;;4947860;28;20441;-68
2021/01/14 08:11:37;;;;;;;8.60;6.23;;;2.50;99.90;;;;;;4947040;29;20845;-68
2021/01/14 08:14:39;;;;;;;13.40;6.50;;;2.50;99.90;;;;;;4923458;29;20449;-67
2021/01/14 08:17:26;;;;;;;10.07;6.33;;;2.40;99.90;;;;;;4941456;29;21021;-67
2021/01/14 08:19:52;;;;;;;6.17;5.40;;;2.40;99.90;;;;;;4951947;29;20510;-68
2021/01/14 08:22:18;;;;;;;9.13;6.67;;;2.40;99.90;;;;;;4952041;29;20437;-67
2021/01/14 08:24:55;;;;;;;10.33;7.43;;;2.40;99.90;;;;;;4952412;29;20460;-67
2021/01/14 08:27:21;;;;;;;7.33;6.10;;;2.40;99.90;;;;;;4946602;29;20459;-68
2021/01/14 08:29:57;;;;;;;10.10;7.10;;;2.40;99.90;;;;;;4945922;29;20424;-67
2021/01/14 08:32:37;;;;;;;7.50;6.20;;;2.40;99.90;;;;;;4952381;29;20260;-68
2021/01/14 08:35:15;;;;;;;10.77;6.83;;;2.40;99.90;;;;;;4951465;29;20434;-68
2021/01/14 08:37:43;;;;;;;10.67;8.33;;;2.40;99.90;;;;;;4951361;28;20533;-67
2021/01/14 08:40:12;;;;;;;10.03;7.47;;;2.40;99.90;;;;;;4952076;29;20460;-67
2021/01/14 08:42:45;;;;;;;11.27;8.50;;;2.50;99.90;;;;;;4952403;29;20495;-67
2021/01/14 08:45:19;;;;;;;12.03;7.43;;;2.50;99.90;;;;;;4941447;29;20433;-68
2021/01/14 08:47:56;;;;;;;11.27;7.67;;;2.60;99.90;;;;;;4938885;28;20516;-67
2021/01/14 08:50:46;;;;;;;10.47;7.47;;;2.50;99.90;;;;;;4947338;29;20436;-67
2021/01/14 08:53:25;;;;;;;11.30;6.70;;;2.60;99.90;;;;;;4940318;29;20437;-67
2021/01/14 08:55:58;;;;;;;9.33;7.20;;;2.70;99.90;;;;;;4951978;29;20444;-67
2021/01/14 08:58:37;;;;;;;10.70;7.53;;;2.70;99.90;;;;;;4951247;29;21016;-66
2021/01/14 09:01:08;;;;;;;8.30;7.47;;;2.70;99.90;;;;;;4950665;29;20487;-67
2021/01/14 09:03:35;;;;;;;10.53;7.20;;;2.70;99.90;;;;;;4951748;28;20492;-67
2021/01/14 09:06:01;;;;;;;10.10;8.03;;;2.70;99.90;;;;;;4951245;28;20437;-67
2021/01/14 09:08:27;;;;;;;11.80;6.90;;;2.80;99.90;;;;;;4956817;28;20797;-68
2021/01/14 09:10:55;;;;;;;7.83;6.20;;;2.90;99.90;;;;;;4950321;29;20878;-67
2021/01/14 09:13:22;;;;;;;8.93;6.23;;;3.00;99.90;;;;;;4950910;28;20260;-67
2021/01/14 09:15:49;;;;;;;12.30;9.90;;;3.00;99.90;;;;;;4938991;29;21000;-67
2021/01/14 09:18:15;;;;;;;10.60;8.20;;;2.90;99.90;;;;;;4950129;28;20460;-68
2021/01/14 09:20:41;;;;;;;10.70;7.70;;;3.00;99.90;;;;;;4950359;28;20885;-67
2021/01/14 09:23:17;;;;;;;12.17;9.10;;;3.00;99.90;;;;;;4951165;29;21013;-67
2021/01/14 09:25:54;;;;;;;8.83;7.93;;;3.00;99.90;;;;;;4951624;28;20865;-68
2021/01/14 09:28:21;;;;;;;7.47;6.67;;;3.00;99.90;;;;;;4952333;28;20486;-67
2021/01/14 09:30:53;;;;;;;8.40;5.97;;;3.00;99.90;;;;;;4952336;28;20605;-66
2021/01/14 09:33:47;;;;;;;6.57;5.93;;;2.90;99.90;;;;;;4948245;29;20950;-67
2021/01/14 09:36:22;;;;;;;8.87;4.70;;;3.00;99.90;;;;;;4943245;29;20472;-67
2021/01/14 09:39:13;;;;;;;6.83;5.17;;;3.00;99.90;;;;;;4946496;28;20608;-68
2021/01/14 09:41:39;;;;;;;9.27;6.47;;;2.90;99.90;;;;;;4948787;28;20448;-67
2021/01/14 09:44:10;;;;;;;7.07;5.10;;;3.00;99.90;;;;;;4950616;28;20440;-68
2021/01/14 09:46:41;;;;;;;5.50;4.43;;;3.00;99.90;;;;;;4944637;28;20465;-66
2021/01/14 09:49:10;;;;;;;6.20;4.03;;;3.00;99.90;;;;;;4941306;29;20483;-67
2021/01/14 09:51:41;;;;;;;6.43;4.23;;;2.90;99.90;;;;;;4949226;28;20487;-68
2021/01/14 09:54:10;;;;;;;6.13;5.07;;;3.00;99.90;;;;;;4951403;29;20456;-67
2021/01/14 09:56:53;;;;;;;5.20;4.30;;;3.10;99.90;;;;;;4942660;28;20460;-68
2021/01/14 09:59:42;;;;;;;4.93;3.43;;;3.10;99.90;;;;;;4943922;29;20471;-68
2021/01/14 10:02:13;;;;;;;5.40;4.43;;;3.20;99.90;;;;;;4947816;28;20559;-67
2021/01/14 10:04:43;;;;;;;7.13;3.80;;;3.20;99.90;;;;;;4945780;29;20523;-66
2021/01/14 10:07:19;;;;;;;7.40;4.50;;;3.20;99.90;;;;;;4949064;29;20456;-67
2021/01/14 10:09:48;;;;;;;4.37;3.70;;;3.10;99.90;;;;;;4951194;28;20471;-67
2021/01/14 10:12:14;;;;;;;5.17;3.40;;;3.20;99.90;;;;;;4951497;29;20447;-67
2021/01/14 10:14:41;;;;;;;5.13;4.20;;;3.10;99.90;;;;;;4948264;29;20444;-69
2021/01/14 10:17:09;;;;;;;5.20;3.93;;;3.00;99.90;;;;;;4946791;28;20200;-67
2021/01/14 10:19:41;;;;;;;5.20;3.40;;;2.90;99.90;;;;;;4950620;29;20496;-68
2021/01/14 10:22:07;;;;;;;8.33;4.37;;;2.80;99.90;;;;;;4948523;29;20440;-67
2021/01/14 10:24:33;;;;;;;4.43;3.80;;;2.80;99.90;;;;;;4950614;28;20518;-67
2021/01/14 10:27:11;;;;;;;4.37;3.70;;;2.90;99.90;;;;;;4950313;28;20448;-68
2021/01/14 10:29:39;;;;;;;6.20;4.03;;;3.00;99.90;;;;;;4940812;29;20524;-67
2021/01/14 10:32:10;;;;;;;6.77;5.70;;;3.10;99.90;;;;;;4946966;29;20459;-67
2021/01/14 10:34:46;;;;;;;4.70;3.47;;;3.00;99.90;;;;;;4950165;29;20448;-68
2021/01/14 10:37:27;;;;;;;4.50;3.77;;;3.00;99.90;;;;;;4950943;29;20526;-68
2021/01/14 10:39:57;;;;;;;4.70;4.00;;;2.90;99.90;;;;;;4936801;28;20959;-67
2021/01/14 10:42:37;;;;;;;5.10;4.23;;;3.00;99.90;;;;;;4949010;29;20452;-68
2021/01/14 10:45:11;;;;;;;5.00;4.03;;;3.00;99.90;;;;;;4935197;29;20435;-68
2021/01/14 10:47:41;;;;;;;6.53;4.40;;;3.10;99.90;;;;;;4949979;29;21108;-67
2021/01/14 10:50:20;;;;;;;3.97;3.63;;;3.10;99.90;;;;;;4950446;28;20579;-67
2021/01/14 10:53:00;;;;;;;4.00;3.00;;;3.20;99.90;;;;;;4950003;29;20444;-67
2021/01/14 10:55:26;;;;;;;4.37;3.97;;;3.20;99.90;;;;;;4941739;29;20494;-67
2021/01/14 10:57:53;;;;;;;6.50;4.50;;;3.30;99.90;;;;;;4949595;28;20523;-67
2021/01/14 11:00:24;;;;;;;5.07;4.20;;;3.40;99.90;;;;;;4948239;28;20467;-67
2021/01/14 11:03:14;;;;;;;4.53;3.57;;;3.50;99.90;;;;;;4948234;29;20432;-67
2021/01/14 11:05:39;;;;;;;4.73;4.33;;;3.50;99.90;;;;;;4941911;29;20440;-67
2021/01/14 11:08:16;;;;;;;5.20;4.70;;;3.40;99.90;;;;;;4949032;29;20452;-67
2021/01/14 11:10:42;;;;;;;7.83;4.40;;;3.50;99.90;;;;;;4939825;29;20666;-67
2021/01/14 11:13:10;;;;;;;7.00;5.80;;;3.50;99.90;;;;;;4944161;29;20440;-67
2021/01/14 11:15:36;;;;;;;6.43;5.87;;;3.50;99.90;;;;;;4946171;29;20895;-68
2021/01/14 11:18:04;;;;;;;6.70;5.63;;;3.60;99.90;;;;;;4947352;28;20486;-68
2021/01/14 11:20:29;;;;;;;11.20;6.43;;;3.60;99.90;;;;;;4949929;29;20475;-65
2021/01/14 11:22:56;;;;;;;6.90;5.63;;;3.50;99.90;;;;;;4950139;28;20440;-67
2021/01/14 11:25:22;;;;;;;8.30;5.73;;;3.50;99.90;;;;;;4949786;28;20181;-67
2021/01/14 11:27:48;;;;;;;7.50;5.20;;;3.50;99.90;;;;;;4945599;28;20471;-68
2021/01/14 11:30:14;;;;;;;9.83;7.03;;;3.50;99.90;;;;;;4950037;29;20436;-66
2021/01/14 11:32:40;;;;;;;8.33;7.10;;;3.60;99.90;;;;;;4948999;28;20288;-68
2021/01/14 11:35:06;;;;;;;12.00;7.53;;;3.60;99.90;;;;;;4949998;29;20444;-67
2021/01/14 11:37:32;;;;;;;7.83;6.33;;;3.60;99.90;;;;;;4948980;29;20476;-67
2021/01/14 11:39:57;;;;;;;10.53;8.10;;;3.60;99.90;;;;;;4948900;28;20514;-68
2021/01/14 11:42:27;;;;;;;12.20;7.87;;;3.60;99.90;;;;;;4949525;28;20216;-67
2021/01/14 11:44:53;;;;;;;9.37;7.00;;;3.60;99.90;;;;;;4949559;29;20647;-67
2021/01/14 11:47:18;;;;;;;9.13;7.63;;;3.70;99.90;;;;;;4947545;29;20468;-67
2021/01/14 11:49:44;;;;;;;7.17;5.20;;;3.70;99.90;;;;;;4949005;29;20662;-67
2021/01/14 11:52:09;;;;;;;7.97;7.17;;;3.80;99.90;;;;;;4945435;28;20195;-68
2021/01/14 11:54:35;;;;;;;6.00;5.40;;;3.80;99.90;;;;;;4949684;28;20256;-67
2021/01/14 11:57:00;;;;;;;7.80;6.10;;;3.80;99.90;;;;;;4949495;28;20866;-66
2021/01/14 11:59:27;;;;;;;11.40;6.97;;;3.70;99.90;;;;;;4948160;29;20193;-67
2021/01/14 12:01:56;;;;;;;6.77;6.17;;;3.70;99.90;;;;;;4945271;29;20223;-66
2021/01/14 12:04:21;;;;;;;8.10;6.70;;;3.60;99.90;;;;;;4949147;29;20498;-67
2021/01/14 12:06:51;;;;;;;17.80;7.20;;;3.50;99.90;;;;;;4949206;29;20462;-67
2021/01/14 12:09:16;;;;;;;8.30;6.77;;;3.60;99.90;;;;;;4948381;29;20638;-67
2021/01/14 12:11:42;;;;;;;9.53;5.80;;;3.50;99.90;;;;;;4948828;29;20476;-67
2021/01/14 12:14:07;;;;;;;7.50;5.90;;;3.50;99.90;;;;;;4949055;28;20271;-66
2021/01/14 12:16:33;;;;;;;6.97;6.27;;;3.50;99.90;;;;;;4948373;29;20232;-67
2021/01/14 12:18:59;;;;;;;7.30;5.63;;;3.50;99.90;;;;;;4948402;28;20192;-67
2021/01/14 12:21:24;;;;;;;6.73;5.30;;;3.60;99.90;;;;;;4948013;29;20755;-67
2021/01/14 12:23:50;;;;;;;6.97;5.40;;;3.70;99.90;;;;;;4948775;29;20189;-67
2021/01/14 12:26:15;;;;;;;7.53;5.10;;;3.80;99.90;;;;;;4948495;29;20191;-67
2021/01/14 12:28:41;;;;;;;8.70;5.10;;;3.90;99.90;;;;;;4945142;28;20553;-67
2021/01/14 12:31:06;;;;;;;10.17;5.47;;;4.00;99.90;;;;;;4962349;28;20609;-67
2021/01/14 12:33:32;;;;;;;9.50;5.60;;;3.90;99.90;;;;;;4947690;28;20220;-67
2021/01/14 12:35:57;;;;;;;8.37;5.70;;;3.70;99.90;;;;;;4946347;29;20824;-67
2021/01/14 12:38:23;;;;;;;7.83;4.90;;;3.70;99.90;;;;;;4943063;28;20200;-67
2021/01/14 12:40:48;;;;;;;6.00;5.13;;;3.80;99.90;;;;;;4948363;28;20235;-67
2021/01/14 12:43:14;;;;;;;6.87;5.17;;;3.80;99.90;;;;;;4940796;29;20204;-66
2021/01/14 12:45:40;;;;;;;6.27;4.40;;;3.90;99.90;;;;;;4947991;29;20268;-66
2021/01/14 12:48:06;;;;;;;11.73;6.00;;;3.80;99.90;;;;;;4948186;28;20208;-66
2021/01/14 12:50:31;;;;;;;8.70;5.97;;;4.00;99.90;;;;;;4940321;29;20193;-67
2021/01/14 12:52:58;;;;;;;9.27;5.23;;;4.10;99.90;;;;;;4947620;29;20445;-67
2021/01/14 12:55:23;;;;;;;12.63;5.60;;;4.00;99.90;;;;;;4948426;29;20184;-67
2021/01/14 12:57:49;;;;;;;13.90;6.23;;;4.00;99.90;;;;;;4946137;28;20471;-67
2021/01/14 13:00:15;;;;;;;10.00;5.60;;;4.00;99.90;;;;;;4948299;29;20299;-67
2021/01/14 13:02:42;;;;;;;9.67;4.87;;;3.90;99.90;;;;;;4950602;28;20260;-67
2021/01/14 13:05:08;;;;;;;6.20;5.30;;;4.00;99.90;;;;;;4952880;29;20444;-67
2021/01/14 13:07:37;;;;;;;6.60;4.90;;;4.00;99.90;;;;;;4951948;29;20488;-68